Terminal Aerodrome Forecast
Issued by NWS Dodge City, KS

Current Version | Previous Version | Text Only | Print | Product List | Glossary On
Versions: 1 2 3 4 5 6 7 8 9 10 11 12 13 14 15 16 17 18 19 20 21 22 23 24
135
FTUS43 KDDC 241120
TAFDDC
TAF
KDDC 241120Z 2412/2512 19006KT P6SM SCT070 BKN200
     FM241600 16007KT P6SM BKN150
     FM241700 15006KT P6SM SCT150 PROB30 2421/2501 4SM -TSRA
      BKN060CB
     FM250700 02005KT P6SM BKN035=

USA.gov is the U.S. government's official web portal to all federal, state and local government web resources and services.